Phoenix, Arizona
Traffic Map
Current Weather Conditions
Phoenix, Arizona
Overcast
Overcast
55°
Feels Like: 55°
Wind Chill: 55° Ceiling: 4900
Heat Index: 55° Visibility: 10mi
Dew Point: 50° Wind: 3mph
Humidity: 83% Direction: 320° (NW)
Pressure: 29.76in Gusts: 0mph
Raw Report DataKPHX 261251Z 32003KT 10SM OVC049 13/10 A2976 RMK AO2 PK WND 34026/1218 WSHFT 1218 RAB13E45 SLP068 P0013 T01280100
Traffic Incident Summary
Active as of:
Severity:
Category:
InformationThere was an issue retrieving the traffic information for this location. Please try a different location or try again shortly.
Advertisements
Track Severe Weather on mobile